Time;durP1;ratioP1;P1;durP2;ratioP2;P2;SDS_P1;SDS_P2;PMS_P1;PMS_P2;Temp;Humidity;BMP_temperature;BMP_pressure;BME280_temperature;BME280_humidity;BME280_pressure;Samples;Min_cycle;Max_cycle;Signal;HPM_P1;HPM_P2
2023/06/08 00:00:23;;;;;;;6.80;6.10;;;;;;;13.02;100.00;97373.11;110162;1240;69237;-66
2023/06/08 00:03:13;;;;;;;5.80;5.10;;;;;;;13.00;100.00;97376.95;110129;1240;69275;-67
2023/06/08 00:05:50;;;;;;;12.40;6.90;;;;;;;12.98;100.00;97377.95;110152;1244;59729;-66
2023/06/08 00:08:20;;;;;;;11.40;7.60;;;;;;;12.98;100.00;97378.66;110135;1240;60158;-67
2023/06/08 00:10:52;;;;;;;7.70;6.40;;;;;;;12.96;100.00;97380.75;110144;1240;70677;-67
2023/06/08 00:13:23;;;;;;;7.80;5.90;;;;;;;12.94;100.00;97381.61;110177;1242;69234;-67
2023/06/08 00:15:55;;;;;;;7.90;6.60;;;;;;;12.94;100.00;97385.13;110173;1242;69086;-67
2023/06/08 00:18:27;;;;;;;8.00;7.00;;;;;;;12.92;100.00;97380.70;110141;1242;59745;-67
2023/06/08 00:20:58;;;;;;;8.10;6.60;;;;;;;12.90;100.00;97375.48;110150;1242;59639;-67
2023/06/08 00:23:28;;;;;;;8.70;6.40;;;;;;;12.89;100.00;97372.59;110134;1242;70185;-67
2023/06/08 00:25:59;;;;;;;7.60;6.40;;;;;;;12.91;100.00;97371.19;110155;1242;69262;-67
2023/06/08 00:28:29;;;;;;;7.00;6.30;;;;;;;12.94;100.00;97370.45;110164;1242;69019;-66
2023/06/08 00:30:59;;;;;;;;;;;;;;;12.96;100.00;97372.33;110107;1241;59737;-67
2023/06/08 00:33:29;;;;;;;10.50;6.20;;;;;;;12.97;100.00;97370.90;110037;1240;59727;-67
2023/06/08 00:35:58;;;;;;;6.00;5.40;;;;;;;12.96;100.00;97368.14;110087;1244;70946;-66
2023/06/08 00:38:30;;;;;;;8.00;6.10;;;;;;;12.95;100.00;97365.27;110082;1243;69232;-65
2023/06/08 00:41:01;;;;;;;7.00;6.30;;;;;;;12.95;100.00;97362.99;109862;1244;68518;-68
2023/06/08 00:43:34;;;;;;;6.60;5.60;;;;;;;12.94;100.00;97364.98;110110;1244;59633;-69
2023/06/08 00:46:07;;;;;;;7.90;6.10;;;;;;;12.93;100.00;97367.21;110075;1244;59686;-67
2023/06/08 00:48:41;;;;;;;9.60;7.50;;;;;;;12.92;100.00;97367.30;110161;1243;71404;-67
2023/06/08 00:51:16;;;;;;;7.80;6.80;;;;;;;12.92;100.00;97370.06;110052;1243;68388;-68
2023/06/08 00:53:47;;;;;;;7.50;5.90;;;;;;;12.92;100.00;97371.30;110056;1244;69342;-69
2023/06/08 00:56:26;;;;;;;7.30;6.30;;;;;;;12.88;100.00;97364.09;110091;1243;59695;-68
2023/06/08 00:59:01;;;;;;;5.80;5.20;;;;;;;12.83;100.00;97362.40;110123;1243;59663;-66
2023/06/08 01:01:31;;;;;;;6.70;4.90;;;;;;;12.77;100.00;97357.48;110090;1244;71678;-68
2023/06/08 01:04:09;;;;;;;7.60;6.80;;;;;;;12.72;100.00;97357.52;110095;1243;69799;-66
2023/06/08 01:06:45;;;;;;;8.50;6.90;;;;;;;12.71;100.00;97357.30;110104;1243;69121;-68
2023/06/08 01:09:39;;;;;;;8.40;6.80;;;;;;;12.68;100.00;97355.94;110037;1243;59780;-68
2023/06/08 01:12:29;;;;;;;5.80;5.20;;;;;;;12.65;100.00;97353.59;110166;1241;59672;-68
2023/06/08 01:15:21;;;;;;;6.60;5.90;;;;;;;12.65;100.00;97357.42;110128;1244;71243;-67
2023/06/08 01:18:04;;;;;;;7.70;6.70;;;;;;;12.64;100.00;97355.08;110085;1244;69404;-68
2023/06/08 01:21:06;;;;;;;8.10;6.20;;;;;;;12.61;100.00;97353.59;110140;1241;69220;-68
2023/06/08 01:24:14;;;;;;;7.30;6.20;;;;;;;12.57;100.00;97354.75;110106;1244;59681;-68
2023/06/08 01:26:50;;;;;;;8.60;6.20;;;;;;;12.49;100.00;97354.70;110087;1244;59690;-67
2023/06/08 01:29:25;;;;;;;6.20;5.40;;;;;;;12.46;100.00;97357.04;110118;1244;71472;-67
2023/06/08 01:31:56;;;;;;;6.30;5.50;;;;;;;12.44;100.00;97356.35;110047;1244;68591;-66
2023/06/08 01:34:27;;;;;;;6.20;5.60;;;;;;;12.43;100.00;97354.02;110048;1243;68400;-67
2023/06/08 01:37:26;;;;;;;5.60;5.10;;;;;;;12.42;100.00;97355.43;109848;1242;59750;-66
2023/06/08 01:40:00;;;;;;;7.00;6.00;;;;;;;12.39;100.00;97350.66;109797;1244;59732;-68
2023/06/08 01:42:32;;;;;;;6.40;5.20;;;;;;;12.36;100.00;97349.31;109837;1243;72170;-66
2023/06/08 01:45:09;;;;;;;7.10;5.80;;;;;;;12.33;100.00;97348.18;110108;1244;68529;-66
2023/06/08 01:47:46;;;;;;;7.30;5.40;;;;;;;12.29;100.00;97351.64;110064;1243;69263;-66
2023/06/08 01:50:19;;;;;;;6.40;5.00;;;;;;;12.27;100.00;97350.09;110079;1244;59703;-66
2023/06/08 01:52:51;;;;;;;7.00;5.60;;;;;;;12.27;100.00;97350.11;110137;1244;59658;-67
2023/06/08 01:55:24;;;;;;;6.30;5.30;;;;;;;12.26;100.00;97349.28;110152;1241;71404;-68
2023/06/08 01:58:01;;;;;;;6.10;5.50;;;;;;;12.24;100.00;97344.29;109910;1242;68392;-69
2023/06/08 02:00:34;;;;;;;7.10;5.70;;;;;;;12.24;100.00;97347.48;110122;1244;68356;-67
2023/06/08 02:03:06;;;;;;;8.50;6.30;;;;;;;12.24;100.00;97349.02;110128;1241;59738;-67
2023/06/08 02:05:38;;;;;;;6.10;5.50;;;;;;;12.22;100.00;97349.06;109833;1246;59639;-68
2023/06/08 02:08:09;;;;;;;6.90;6.10;;;;;;;12.19;100.00;97346.47;110070;1244;70658;-68
2023/06/08 02:10:40;;;;;;;6.60;5.70;;;;;;;12.19;100.00;97345.38;110109;1245;69193;-67
2023/06/08 02:13:11;;;;;;;6.00;5.40;;;;;;;12.21;100.00;97348.41;110095;1244;69398;-67
2023/06/08 02:15:42;;;;;;;6.00;5.20;;;;;;;12.21;100.00;97349.61;110094;1242;59797;-67
2023/06/08 02:18:13;;;;;;;5.70;5.10;;;;;;;12.21;100.00;97347.94;109860;1244;59686;-68
2023/06/08 02:20:43;;;;;;;7.50;6.50;;;;;;;12.20;100.00;97347.09;110003;1244;72002;-68
2023/06/08 02:23:13;;;;;;;;;;;;;;;12.17;100.00;97346.15;110140;1243;69146;-66
2023/06/08 02:25:45;;;;;;;8.30;6.30;;;;;;;12.13;100.00;97348.92;110105;1244;69300;-67
2023/06/08 02:28:16;;;;;;;5.90;5.20;;;;;;;12.09;100.00;97352.89;109879;1242;59753;-66
2023/06/08 02:30:46;;;;;;;;;;;;;;;12.04;100.00;97351.31;110088;1244;59660;-66
2023/06/08 02:33:17;;;;;;;5.10;4.30;;;;;;;12.03;100.00;97349.89;110101;1242;71235;-66
2023/06/08 02:35:48;;;;;;;5.40;4.80;;;;;;;12.03;100.00;97348.50;110059;1244;68236;-68
2023/06/08 02:38:18;;;;;;;6.50;5.60;;;;;;;12.05;100.00;97353.34;109940;1250;68553;-67
2023/06/08 02:40:49;;;;;;;6.20;5.30;;;;;;;12.07;100.00;97358.11;109830;1244;59691;-68
2023/06/08 02:43:19;;;;;;;6.60;5.80;;;;;;;12.09;100.00;97355.17;110065;1244;59737;-66
2023/06/08 02:45:53;;;;;;;5.50;4.90;;;;;;;12.11;100.00;97352.88;109927;1240;70619;-66
2023/06/08 02:48:25;;;;;;;6.40;5.70;;;;;;;12.17;100.00;97352.58;110166;1240;69067;-67
2023/06/08 02:50:55;;;;;;;6.60;5.50;;;;;;;12.21;100.00;97354.19;110055;1243;69232;-67
2023/06/08 02:53:25;;;;;;;5.70;5.00;;;;;;;12.27;100.00;97355.48;110137;1243;59742;-66
2023/06/08 02:55:58;;;;;;;6.30;5.20;;;;;;;12.33;100.00;97354.80;110124;1243;59701;-66
2023/06/08 02:58:30;;;;;;;7.20;5.40;;;;;;;12.38;100.00;97354.23;109951;1244;70737;-68
2023/06/08 03:01:00;;;;;;;7.10;5.80;;;;;;;12.42;100.00;97358.95;109856;1244;69257;-68
2023/06/08 03:03:53;;;;;;;;;;;;;;;12.46;100.00;97360.34;110053;1244;70003;-68
2023/06/08 03:06:33;;;;;;;6.10;5.00;;;;;;;12.51;100.00;97363.80;110128;1242;59730;-68
2023/06/08 03:09:04;;;;;;;6.40;5.80;;;;;;;12.57;100.00;97369.24;110151;1244;59669;-67
2023/06/08 03:11:36;;;;;;;6.00;5.40;;;;;;;12.60;100.00;97366.77;109840;1244;71247;-66
2023/06/08 03:14:06;;;;;;;7.40;6.10;;;;;;;12.68;100.00;97365.93;109906;1244;69031;-66
2023/06/08 03:16:36;;;;;;;7.40;5.40;;;;;;;12.77;100.00;97363.60;110128;1251;69989;-66
2023/06/08 03:19:07;;;;;;;6.00;5.20;;;;;;;12.88;100.00;97368.52;110059;1244;59671;-66
2023/06/08 03:21:41;;;;;;;8.50;5.50;;;;;;;12.97;100.00;97368.74;109806;1244;59653;-66
2023/06/08 03:24:14;;;;;;;7.30;5.20;;;;;;;13.09;100.00;97372.84;110137;1241;71310;-67
2023/06/08 03:26:44;;;;;;;7.10;5.90;;;;;;;13.24;100.00;97378.32;109897;1240;67867;-68
2023/06/08 03:29:14;;;;;;;6.00;5.00;;;;;;;13.36;100.00;97374.45;110157;1240;68554;-68
2023/06/08 03:31:44;;;;;;;6.80;5.10;;;;;;;13.48;100.00;97376.74;110154;1242;59696;-66
2023/06/08 03:34:18;;;;;;;7.70;5.50;;;;;;;13.58;100.00;97373.62;110157;1244;59686;-66
2023/06/08 03:36:48;;;;;;;6.80;5.60;;;;;;;13.65;100.00;97378.95;110059;1241;70681;-66
2023/06/08 03:39:21;;;;;;;6.60;5.60;;;;;;;13.70;100.00;97380.28;110086;1243;69792;-67
2023/06/08 03:41:52;;;;;;;6.50;5.50;;;;;;;13.77;100.00;97384.27;109874;1242;69197;-67
2023/06/08 03:44:22;;;;;;;7.50;5.70;;;;;;;13.85;100.00;97381.00;109971;1244;59736;-66
2023/06/08 03:46:52;;;;;;;7.30;5.60;;;;;;;13.91;100.00;97381.99;109888;1244;59819;-66
2023/06/08 03:49:24;;;;;;;6.50;5.90;;;;;;;13.96;100.00;97382.77;110116;1243;70679;-67
2023/06/08 03:51:55;;;;;;;6.40;4.70;;;;;;;13.99;100.00;97380.77;110105;1241;69220;-67
2023/06/08 03:54:26;;;;;;;7.70;5.20;;;;;;;14.01;100.00;97384.44;110072;1241;69638;-67
2023/06/08 03:56:56;;;;;;;6.80;5.00;;;;;;;14.04;100.00;97387.54;110116;1243;59734;-68
2023/06/08 03:59:26;;;;;;;;;;;;;;;14.07;100.00;97384.79;110140;1243;59748;-65
2023/06/08 04:01:56;;;;;;;6.70;5.50;;;;;;;14.13;100.00;97384.08;110093;1244;71086;-68
2023/06/08 04:04:29;;;;;;;6.60;5.20;;;;;;;14.16;100.00;97386.34;110145;1242;68504;-69
2023/06/08 04:07:00;;;;;;;8.00;5.50;;;;;;;14.17;100.00;97387.30;110047;1241;68685;-67
2023/06/08 04:09:30;;;;;;;6.30;5.70;;;;;;;14.21;100.00;97384.10;110036;1243;59699;-68
2023/06/08 04:11:59;;;;;;;7.20;5.50;;;;;;;14.23;100.00;97386.70;110142;1244;59748;-66
2023/06/08 04:14:30;;;;;;;6.80;5.60;;;;;;;14.23;100.00;97387.25;110153;1244;71808;-69
2023/06/08 04:17:00;;;;;;;7.80;6.10;;;;;;;14.22;100.00;97391.15;109974;1242;68760;-68
2023/06/08 04:19:31;;;;;;;8.50;5.50;;;;;;;14.15;100.00;97394.49;109836;1244;69249;-67
2023/06/08 04:22:04;;;;;;;5.80;5.20;;;;;;;14.09;100.00;97396.23;110110;1245;59681;-67
2023/06/08 04:24:38;;;;;;;5.60;5.10;;;;;;;14.04;100.00;97395.75;109763;1242;59712;-68
2023/06/08 04:27:07;;;;;;;11.20;6.00;;;;;;;14.02;100.00;97396.63;110104;1244;71949;-66
2023/06/08 04:29:37;;;;;;;6.00;5.40;;;;;;;14.00;100.00;97399.09;110057;1244;68404;-67
2023/06/08 04:32:06;;;;;;;;;;;;;;;13.98;100.00;97399.91;110081;1244;69896;-67
2023/06/08 04:34:37;;;;;;;7.90;6.60;;;;;;;13.96;100.00;97398.23;110150;1244;59728;-67
2023/06/08 04:37:06;;;;;;;6.20;5.50;;;;;;;13.82;100.00;97400.35;110141;1243;59695;-67
2023/06/08 04:39:35;;;;;;;7.20;6.50;;;;;;;13.80;100.00;97403.33;110095;1244;70519;-67
2023/06/08 04:42:08;;;;;;;7.50;5.80;;;;;;;13.76;100.00;97402.70;110123;1244;70070;-67
2023/06/08 04:44:38;;;;;;;6.20;5.60;;;;;;;13.79;100.00;97403.70;110104;1244;69866;-67
2023/06/08 04:47:07;;;;;;;;;;;;;;;13.86;100.00;97403.99;110129;1243;59701;-67
2023/06/08 04:49:38;;;;;;;6.90;6.20;;;;;;;13.92;100.00;97407.86;110130;1243;59634;-67
2023/06/08 04:52:13;;;;;;;7.00;6.30;;;;;;;13.89;100.00;97414.04;110130;1245;71362;-67
2023/06/08 04:54:42;;;;;;;7.20;5.90;;;;;;;13.89;100.00;97415.59;110112;1244;69155;-67
2023/06/08 04:57:15;;;;;;;6.20;5.20;;;;;;;13.92;100.00;97413.94;110125;1243;69162;-67
2023/06/08 04:59:45;;;;;;;7.00;6.30;;;;;;;14.01;100.00;97411.27;110111;1244;59757;-67
2023/06/08 05:02:14;;;;;;;7.20;6.40;;;;;;;14.13;100.00;97414.95;110128;1244;59640;-67
2023/06/08 05:04:44;;;;;;;5.90;5.30;;;;;;;14.21;100.00;97418.06;110151;1244;71842;-68
2023/06/08 05:07:13;;;;;;;7.40;5.60;;;;;;;14.30;100.00;97422.29;110159;1243;68759;-70
2023/06/08 05:09:43;;;;;;;8.20;6.30;;;;;;;14.38;100.00;97422.11;110092;1243;69693;-68
2023/06/08 05:12:11;;;;;;;9.00;6.40;;;;;;;14.44;100.00;97422.41;110071;1241;59708;-68
2023/06/08 05:14:41;;;;;;;6.40;5.60;;;;;;;14.50;100.00;97420.34;110151;1241;59739;-67
2023/06/08 05:17:10;;;;;;;;;;;;;;;14.58;100.00;97421.58;110109;1244;71397;-67
2023/06/08 05:19:40;;;;;;;6.30;5.60;;;;;;;14.67;100.00;97421.23;110128;1242;69241;-68
2023/06/08 05:22:09;;;;;;;7.20;5.90;;;;;;;14.75;100.00;97422.43;110137;1243;69322;-67
2023/06/08 05:24:39;;;;;;;7.40;5.50;;;;;;;14.86;100.00;97427.34;110051;1244;59735;-67
2023/06/08 05:27:08;;;;;;;6.40;4.90;;;;;;;14.94;100.00;97429.23;110151;1243;59681;-67
2023/06/08 05:29:37;;;;;;;5.60;5.00;;;;;;;15.02;100.00;97429.84;110144;1243;70528;-68
2023/06/08 05:32:07;;;;;;;;;;;;;;;15.05;100.00;97428.00;110095;1241;69942;-69
2023/06/08 05:34:36;;;;;;;5.30;4.80;;;;;;;15.07;100.00;97430.50;110073;1244;69771;-67
2023/06/08 05:37:05;;;;;;;6.30;4.90;;;;;;;15.10;100.00;97429.02;110151;1243;59705;-68
2023/06/08 05:39:34;;;;;;;6.20;5.50;;;;;;;15.16;100.00;97429.24;110166;1242;59700;-68
2023/06/08 05:42:03;;;;;;;6.50;5.80;;;;;;;15.23;100.00;97431.63;110152;1243;71963;-67
2023/06/08 05:44:32;;;;;;;6.40;5.60;;;;;;;15.31;100.00;97434.44;110175;1242;69854;-68
2023/06/08 05:47:02;;;;;;;6.20;5.30;;;;;;;15.39;100.00;97432.30;110168;1240;69772;-68
2023/06/08 05:49:31;;;;;;;5.20;4.70;;;;;;;15.49;100.00;97432.55;110161;1243;59699;-68
2023/06/08 05:52:00;;;;;;;5.80;5.20;;;;;;;15.59;100.00;97431.85;109989;1240;59678;-68
2023/06/08 05:54:30;;;;;;;5.30;4.80;;;;;;;15.63;100.00;97435.34;110173;1244;70821;-69
2023/06/08 05:57:00;;;;;;;6.30;4.70;;;;;;;15.72;100.00;97434.73;110158;1241;68485;-68
2023/06/08 05:59:29;;;;;;;5.40;4.90;;;;;;;15.72;100.00;97431.56;110171;1244;69851;-69
2023/06/08 06:01:59;;;;;;;5.30;4.80;;;;;;;15.82;100.00;97430.79;110114;1243;59745;-68
2023/06/08 06:04:28;;;;;;;5.80;4.90;;;;;;;15.82;100.00;97431.29;110106;1242;59759;-68
2023/06/08 06:07:06;;;;;;;6.20;5.30;;;;;;;15.74;100.00;97433.45;110155;1241;72028;-68
2023/06/08 06:09:35;;;;;;;6.60;5.00;;;;;;;15.72;100.00;97432.92;110172;1241;68771;-68
2023/06/08 06:12:07;;;;;;;7.90;5.80;;;;;;;15.65;100.00;97432.91;110154;1241;69230;-69
2023/06/08 06:14:40;;;;;;;6.30;5.40;;;;;;;15.61;100.00;97436.72;110181;1242;59741;-69
2023/06/08 06:17:11;;;;;;;5.80;5.30;;;;;;;15.54;100.00;97436.72;110209;1240;59715;-68
2023/06/08 06:19:40;;;;;;;6.30;5.70;;;;;;;15.54;100.00;97436.33;110197;1242;71426;-68
2023/06/08 06:22:10;;;;;;;6.60;6.00;;;;;;;15.53;100.00;97436.27;110144;1244;68332;-68
2023/06/08 06:24:38;;;;;;;;;;;;;;;15.50;100.00;97434.45;110161;1240;70224;-68
2023/06/08 06:27:09;;;;;;;5.80;5.20;;;;;;;15.54;100.00;97436.33;110149;1240;59757;-67
2023/06/08 06:29:39;;;;;;;5.60;4.50;;;;;;;15.64;100.00;97435.80;110199;1248;59599;-68
2023/06/08 06:32:09;;;;;;;6.20;4.50;;;;;;;15.80;100.00;97441.48;110158;1242;70255;-68
2023/06/08 06:34:38;;;;;;;5.20;4.70;;;;;;;15.93;100.00;97441.71;110125;1240;69198;-68
2023/06/08 06:37:08;;;;;;;5.10;4.60;;;;;;;16.09;100.00;97443.15;110084;1242;69159;-68
2023/06/08 06:39:37;;;;;;;5.50;4.80;;;;;;;16.22;100.00;97440.51;110137;1244;59739;-68
2023/06/08 06:42:07;;;;;;;6.50;5.30;;;;;;;16.32;100.00;97441.33;110138;1244;59709;-69
2023/06/08 06:44:51;;;;;;;5.30;4.60;;;;;;;16.40;100.00;97439.17;110158;1241;71632;-68
2023/06/08 06:47:20;;;;;;;5.50;4.80;;;;;;;16.49;100.00;97441.65;110199;1242;69792;-68
2023/06/08 06:49:50;;;;;;;6.20;4.20;;;;;;;16.61;100.00;97434.85;109867;1244;426311;-68
2023/06/08 06:52:19;;;;;;;5.40;4.10;;;;;;;16.71;100.00;97434.21;110162;1242;59744;-68
2023/06/08 06:54:48;;;;;;;4.70;4.20;;;;;;;16.84;100.00;97435.98;110190;1244;59678;-68
2023/06/08 06:57:17;;;;;;;5.20;4.10;;;;;;;16.91;96.97;97438.63;110160;1240;71373;-69
2023/06/08 06:59:46;;;;;;;4.90;4.30;;;;;;;17.04;95.98;97440.85;110181;1241;68365;-69
2023/06/08 07:02:15;;;;;;;4.90;4.30;;;;;;;17.09;90.45;97439.56;110118;1242;69993;-68
2023/06/08 07:04:45;;;;;;;;;;;;;;;17.09;91.11;97442.13;110183;1242;59671;-69
2023/06/08 07:07:14;;;;;;;5.80;4.60;;;;;;;17.15;96.44;97444.89;110195;1243;59707;-69
2023/06/08 07:09:44;;;;;;;5.30;4.40;;;;;;;17.17;96.08;97443.27;110133;1244;71837;-69
2023/06/08 07:12:14;;;;;;;5.40;4.40;;;;;;;17.18;94.42;97441.61;110176;1244;69115;-67
2023/06/08 07:14:44;;;;;;;5.30;4.80;;;;;;;17.23;94.71;97440.59;110162;1242;69885;-68
2023/06/08 07:17:14;;;;;;;6.20;4.70;;;;;;;17.32;94.60;97439.31;110210;1242;59761;-68
2023/06/08 07:19:45;;;;;;;5.30;4.10;;;;;;;17.35;95.71;97436.36;110169;1241;59658;-68
2023/06/08 07:22:15;;;;;;;5.40;4.40;;;;;;;17.40;95.15;97435.23;110177;1240;71992;-69
2023/06/08 07:25:05;;;;;;;5.20;4.50;;;;;;;17.48;95.00;97435.44;110162;1242;69767;-69
2023/06/08 07:27:54;;;;;;;6.50;4.80;;;;;;;17.54;97.11;97434.82;110113;1242;69261;-67
2023/06/08 07:30:24;;;;;;;6.30;4.80;;;;;;;17.56;95.73;97430.77;110171;1242;59748;-69
2023/06/08 07:32:53;;;;;;;5.80;4.60;;;;;;;17.57;95.36;97432.59;110177;1242;59806;-67
2023/06/08 07:35:22;;;;;;;5.90;4.50;;;;;;;17.66;96.45;97433.74;110108;1242;72356;-68
2023/06/08 07:37:53;;;;;;;6.50;5.10;;;;;;;17.67;95.43;97432.30;110148;1244;69080;-67
2023/06/08 07:40:22;;;;;;;5.10;4.60;;;;;;;17.75;89.57;97428.65;110140;1242;69637;-69
2023/06/08 07:42:51;;;;;;;5.60;5.00;;;;;;;17.89;89.58;97430.45;110143;1242;59700;-68
2023/06/08 07:45:20;;;;;;;5.10;4.10;;;;;;;18.02;89.18;97432.46;110182;1244;59607;-67
2023/06/08 07:47:49;;;;;;;5.40;4.90;;;;;;;18.05;86.59;97431.73;110187;1244;71340;-67
2023/06/08 07:50:18;;;;;;;4.70;3.90;;;;;;;18.25;88.49;97431.61;110169;1241;69124;-66
2023/06/08 07:52:47;;;;;;;5.10;4.20;;;;;;;18.51;87.68;97431.71;110145;1242;69765;-65
2023/06/08 07:55:16;;;;;;;5.20;4.70;;;;;;;18.67;87.68;97435.38;110184;1244;59692;-66
2023/06/08 07:57:45;;;;;;;4.60;4.10;;;;;;;18.68;85.26;97429.81;110206;1240;59718;-66
2023/06/08 08:00:15;;;;;;;4.20;3.80;;;;;;;18.81;84.18;97432.15;110192;1242;71366;-68
2023/06/08 08:02:44;;;;;;;5.00;3.70;;;;;;;19.06;84.66;97428.09;110135;1243;69832;-66
2023/06/08 08:05:14;;;;;;;4.00;3.60;;;;;;;19.16;82.64;97422.91;110186;1244;70217;-67
2023/06/08 08:07:43;;;;;;;4.80;4.30;;;;;;;19.36;82.98;97423.08;110159;1242;59744;-65
2023/06/08 08:10:12;;;;;;;4.80;4.10;;;;;;;19.46;80.22;97424.50;110136;1242;59736;-65
2023/06/08 08:12:42;;;;;;;5.10;4.50;;;;;;;19.44;79.61;97423.44;110151;1243;71245;-65
2023/06/08 08:15:11;;;;;;;;;;;;;;;19.51;80.51;97421.28;110144;1242;69816;-65
2023/06/08 08:17:41;;;;;;;5.50;4.80;;;;;;;19.50;79.05;97421.86;110153;1245;68476;-66
2023/06/08 08:20:10;;;;;;;;;;;;;;;19.26;81.31;97420.10;110196;1242;60150;-68
2023/06/08 08:22:39;;;;;;;6.00;4.60;;;;;;;19.32;83.80;97421.66;110292;1243;59684;-66
2023/06/08 08:25:08;;;;;;;5.80;4.80;;;;;;;19.37;82.83;97420.23;110265;1243;71339;-68
2023/06/08 08:27:37;;;;;;;6.60;5.20;;;;;;;19.30;81.71;97420.71;110185;1242;69411;-68
2023/06/08 08:30:07;;;;;;;5.70;4.70;;;;;;;19.15;82.67;97418.95;110193;1242;69688;-66
2023/06/08 08:32:37;;;;;;;7.30;5.80;;;;;;;19.17;82.14;97421.20;110201;1244;59669;-69
2023/06/08 08:35:09;;;;;;;7.40;5.50;;;;;;;19.27;82.75;97421.00;110196;1242;59726;-68
2023/06/08 08:37:38;;;;;;;8.70;6.20;;;;;;;19.40;81.91;97421.95;110138;1242;71237;-69
2023/06/08 08:40:09;;;;;;;5.10;4.60;;;;;;;19.56;82.94;97423.77;110190;1243;69274;-69
2023/06/08 08:42:46;;;;;;;5.30;4.60;;;;;;;19.82;82.80;97420.34;110202;1242;68928;-69
2023/06/08 08:45:16;;;;;;;6.10;5.00;;;;;;;20.05;78.52;97423.22;110122;1244;59757;-67
2023/06/08 08:47:47;;;;;;;5.90;4.80;;;;;;;20.07;77.20;97418.45;110220;1242;59629;-68
2023/06/08 08:50:17;;;;;;;6.20;5.30;;;;;;;20.24;77.54;97419.88;110211;1241;71964;-68
2023/06/08 08:52:53;;;;;;;4.50;4.10;;;;;;;20.21;78.38;97419.48;110155;1242;69947;-68
2023/06/08 08:55:27;;;;;;;6.90;4.80;;;;;;;20.36;78.78;97420.45;110183;1243;70073;-69
2023/06/08 08:58:05;;;;;;;6.20;4.60;;;;;;;20.41;79.23;97419.54;110151;1242;59695;-69
2023/06/08 09:00:35;;;;;;;6.30;4.30;;;;;;;20.74;75.52;97416.90;110142;1240;59715;-69
2023/06/08 09:03:05;;;;;;;;;;;;;;;20.96;74.95;97416.32;110224;1244;71916;-68
2023/06/08 09:05:34;;;;;;;6.20;4.50;;;;;;;21.00;74.39;97414.59;110161;1242;69843;-68
2023/06/08 09:08:03;;;;;;;4.80;3.90;;;;;;;21.37;73.25;97409.62;110131;1241;69201;-67
2023/06/08 09:10:32;;;;;;;4.70;3.80;;;;;;;21.86;72.47;97413.77;110114;1242;59635;-66
2023/06/08 09:13:02;;;;;;;5.80;4.30;;;;;;;22.41;72.42;97412.69;110191;1244;59626;-67
2023/06/08 09:15:34;;;;;;;5.30;4.00;;;;;;;23.04;70.07;97408.58;110152;1245;71942;-67
2023/06/08 09:18:23;;;;;;;5.50;5.00;;;;;;;23.56;67.85;97404.20;110209;1241;69272;-67
2023/06/08 09:20:53;;;;;;;6.70;4.30;;;;;;;23.92;65.25;97401.42;109972;1244;69254;-68
2023/06/08 09:23:26;;;;;;;4.10;3.60;;;;;;;23.84;63.40;97397.71;110192;1242;59700;-69
2023/06/08 09:25:56;;;;;;;4.80;4.10;;;;;;;24.24;62.26;97392.99;110148;1240;59739;-67
2023/06/08 09:28:26;;;;;;;4.30;3.80;;;;;;;24.57;60.85;97393.07;110227;1242;71468;-68
2023/06/08 09:31:00;;;;;;;5.40;3.60;;;;;;;24.81;57.55;97390.38;110142;1243;68822;-68
2023/06/08 09:33:33;;;;;;;4.70;4.00;;;;;;;24.93;58.66;97391.64;110146;1245;69328;-68
2023/06/08 09:36:02;;;;;;;3.50;3.10;;;;;;;24.55;57.22;97389.42;110135;1250;59740;-68
2023/06/08 09:38:32;;;;;;;3.20;2.90;;;;;;;24.80;56.55;97385.48;110158;1242;59734;-68
2023/06/08 09:41:17;;;;;;;4.60;3.20;;;;;;;25.03;56.46;97383.93;110175;1245;71378;-69
2023/06/08 09:43:48;;;;;;;3.80;3.40;;;;;;;25.16;54.62;97378.44;110176;1242;69747;-68
2023/06/08 09:46:45;;;;;;;3.80;3.30;;;;;;;24.97;55.73;97380.62;110146;1243;69868;-67
2023/06/08 09:49:16;;;;;;;4.50;3.30;;;;;;;25.32;54.28;97376.44;110187;1240;59699;-68
2023/06/08 09:51:52;;;;;;;4.70;3.30;;;;;;;25.57;55.03;97378.41;110162;1242;59751;-68
2023/06/08 09:54:27;;;;;;;5.20;4.10;;;;;;;25.09;53.15;97376.20;110197;1242;71245;-67
2023/06/08 09:56:58;;;;;;;3.90;3.30;;;;;;;25.10;53.56;97370.98;110145;1244;69794;-67
2023/06/08 09:59:43;;;;;;;4.30;3.60;;;;;;;25.42;52.81;97368.54;110140;1244;68551;-66
2023/06/08 10:02:23;;;;;;;4.20;3.50;;;;;;;25.49;50.76;97363.96;110120;1242;59748;-67
2023/06/08 10:04:54;;;;;;;4.80;3.70;;;;;;;25.82;50.15;97361.67;110141;1242;59712;-68
2023/06/08 10:07:29;;;;;;;4.20;3.60;;;;;;;25.91;52.99;97359.20;110105;1242;71817;-68
2023/06/08 10:10:05;;;;;;;4.70;3.80;;;;;;;26.15;52.74;97352.35;110117;1245;69799;-66
2023/06/08 10:12:35;;;;;;;5.30;3.50;;;;;;;26.84;51.13;97347.55;110106;1243;69882;-66
2023/06/08 10:15:06;;;;;;;5.60;3.90;;;;;;;27.19;50.45;97339.20;110118;1243;59745;-67
2023/06/08 10:17:36;;;;;;;4.90;3.70;;;;;;;27.23;48.27;97337.51;110155;1242;59636;-67
2023/06/08 10:20:06;;;;;;;4.30;3.30;;;;;;;27.03;47.55;97336.49;110120;1242;71602;-66
2023/06/08 10:22:37;;;;;;;4.90;3.50;;;;;;;26.73;48.36;97336.92;110166;1240;68531;-68
2023/06/08 10:25:08;;;;;;;4.40;3.20;;;;;;;26.81;48.35;97330.93;110136;1241;70015;-68
2023/06/08 10:27:38;;;;;;;5.70;3.90;;;;;;;26.77;47.82;97327.75;110132;1243;60087;-67
2023/06/08 10:30:08;;;;;;;4.80;3.00;;;;;;;26.73;47.85;97324.31;110193;1240;59686;-67
2023/06/08 10:32:42;;;;;;;3.80;3.40;;;;;;;26.64;46.62;97322.52;110192;1242;71997;-67
2023/06/08 10:35:12;;;;;;;4.80;3.50;;;;;;;26.90;46.05;97314.83;110166;1242;69841;-67
2023/06/08 10:37:44;;;;;;;3.30;2.80;;;;;;;27.44;46.68;97316.34;110151;1247;68547;-66
2023/06/08 10:40:15;;;;;;;4.70;3.40;;;;;;;27.74;47.43;97315.80;110138;1249;59678;-67
2023/06/08 10:42:53;;;;;;;4.30;3.50;;;;;;;27.82;46.20;97314.09;110144;1242;59681;-67
2023/06/08 10:45:46;;;;;;;3.80;3.00;;;;;;;28.19;45.69;97312.63;110129;1241;72130;-67
2023/06/08 10:48:18;;;;;;;7.80;4.00;;;;;;;28.21;42.69;97308.15;110184;1241;69386;-68
2023/06/08 10:50:50;;;;;;;4.90;3.20;;;;;;;28.53;43.36;97306.14;110139;1242;69772;-67
2023/06/08 10:53:21;;;;;;;5.80;3.80;;;;;;;28.80;43.52;97306.14;110165;1242;59745;-67
2023/06/08 10:55:51;;;;;;;4.40;3.40;;;;;;;28.83;42.73;97303.70;110122;1242;59703;-67
2023/06/08 10:58:21;;;;;;;4.00;3.60;;;;;;;28.52;45.07;97294.55;110141;1242;71764;-66
2023/06/08 11:01:03;;;;;;;5.50;3.40;;;;;;;28.26;45.54;97293.23;110147;1242;69853;-68
2023/06/08 11:03:46;;;;;;;4.00;3.40;;;;;;;28.19;44.25;97287.83;110154;1250;69842;-66
2023/06/08 11:06:15;;;;;;;6.00;4.20;;;;;;;28.29;44.19;97286.67;110150;1246;59712;-68
2023/06/08 11:08:46;;;;;;;5.00;4.00;;;;;;;27.88;43.10;97282.86;110140;1241;59797;-67
2023/06/08 11:11:15;;;;;;;6.20;4.20;;;;;;;27.88;45.26;97279.52;110155;1241;70620;-66
2023/06/08 11:13:46;;;;;;;4.60;3.80;;;;;;;27.22;45.21;97279.17;110130;1242;70220;-67
2023/06/08 11:16:20;;;;;;;5.30;4.00;;;;;;;27.77;45.08;97281.78;110147;1250;69997;-67
2023/06/08 11:18:52;;;;;;;4.30;3.90;;;;;;;27.95;44.38;97278.23;110120;1242;59738;-67
2023/06/08 11:21:26;;;;;;;4.60;3.50;;;;;;;28.50;44.47;97275.88;110199;1242;59725;-69
2023/06/08 11:23:55;;;;;;;4.30;3.90;;;;;;;28.50;44.22;97272.17;110411;1239;71195;-68
2023/06/08 11:26:24;;;;;;;6.40;5.20;;;;;;;28.66;45.07;97270.61;110243;1243;69771;-68
2023/06/08 11:28:53;;;;;;;;;;;;;;;28.22;44.36;97268.92;110356;1241;69702;-70
2023/06/08 11:31:22;;;;;;;4.60;3.80;;;;;;;27.85;44.56;97268.35;110294;1242;59725;-67
2023/06/08 11:33:55;;;;;;;6.40;3.80;;;;;;;27.64;45.22;97271.02;110281;1242;59678;-68
2023/06/08 11:36:25;;;;;;;6.60;4.00;;;;;;;27.43;45.17;97269.61;110366;1242;71951;-67
2023/06/08 11:38:54;;;;;;;3.90;3.20;;;;;;;27.00;47.25;97266.80;110284;1242;68494;-67
2023/06/08 11:41:23;;;;;;;;;;;;;;;27.62;46.62;97264.34;110255;1242;69904;-67
2023/06/08 11:43:51;;;;;;;;;;;;;;;27.94;45.47;97266.39;110294;1242;59719;-68
2023/06/08 11:46:21;;;;;;;4.50;3.30;;;;;;;27.98;43.77;97264.23;110236;1242;59720;-67